Dufftown, United Kingdom
Current Conditions -  °F | °C
As of 8:50 AM on Friday 31 Oct 2014 (Local Time) from EGQS Reporting Station
Broken Clouds Broken Clouds  
Wind Chill: 59°   Ceiling: 10000
Heat Index: 59°   Visibility: 6mi
Dew Point: 52°   Wind: 3mph
Humidity: 77%   Direction: 110°ESE
Pressure: 29.68"   Gusts: NA
Location:  57.43°N, 3.13°W
Report Text: EGQS 310850Z 11003KT 9999 FEW020 BKN100 15/11 Q1005 BLU NOSIG
Loading
Personal Weather Stations






























Interactive Weather Map New forecast layout! Learn more

10-Day Weather Forecast

Advertisements
Track Severe Weather on mobile